This is the latest recevied weather packets stored in our database for station/object KN6KS. If no packets are shown the sender has not sent any weather packets the latest 10 day(s).
| Time | Temp. | Humidity | Pressure | Rain* | Wind** | Luminosity | Snow |
|---|---|---|---|---|---|---|---|
| 1778134388 | 18.89° C | 47% | 1016 hPa | 0 mm | - | 0 W/m² | - |
| 1778134086 | 18.89° C | 45% | 1015.8 hPa | 0 mm | - | 0 W/m² | - |
| 1778133783 | 19.44° C | 41% | 1016.1 hPa | 0 mm | - | 0 W/m² | - |
| 1778133479 | 19.44° C | 43% | 1016.3 hPa | 0 mm | - | 0 W/m² | - |
| 1778133174 | 20° C | 40% | 1016.1 hPa | 0 mm | - | 0 W/m² | - |
| 1778132871 | 20.56° C | 38% | 1016 hPa | 0 mm | - | 0 W/m² | - |
| 1778132567 | 21.11° C | 36% | 1016 hPa | 0 mm | - | 0 W/m² | - |
| 1778132265 | 21.11° C | 36% | 1015.9 hPa | 0 mm | - | 0 W/m² | - |
| 1778131962 | 21.67° C | 35% | 1016 hPa | 0 mm | - | 0 W/m² | - |
| 1778131661 | 21.67° C | 34% | 1016 hPa | 0 mm | - | 0 W/m² | - |
| 1778131357 | 21.67° C | 34% | 1016.1 hPa | 0 mm | - | 0 W/m² | - |
| 1778131055 | 21.67° C | 34% | 1015.9 hPa | 0 mm | - | 0 W/m² | - |
| 1778130752 | 21.67° C | 35% | 1015.8 hPa | 0 mm | - | 0 W/m² | - |
| 1778130448 | 21.67° C | 36% | 1015.9 hPa | 0 mm | - | 0 W/m² | - |
| 1778130146 | 22.22° C | 35% | 1015.7 hPa | 0 mm | - | 0 W/m² | - |
| 1778129842 | 22.22° C | 35% | 1015.9 hPa | 0 mm | - | 0 W/m² | - |
| 1778129538 | 21.67° C | 36% | 1015.8 hPa | 0 mm | - | 0 W/m² | - |
| 1778129236 | 22.22° C | 36% | 1015.7 hPa | 0 mm | - | 0 W/m² | - |
| 1778128932 | 22.22° C | 35% | 1015.6 hPa | 0 mm | - | 0 W/m² | - |
| 1778128628 | 22.22° C | 35% | 1015.7 hPa | 0 mm | - | 0 W/m² | - |
| 1778128325 | 22.22° C | 35% | 1015.9 hPa | 0 mm | - | 0 W/m² | - |
| 1778128022 | 22.22° C | 36% | 1015.6 hPa | 0 mm | - | 0 W/m² | - |
| 1778127716 | 22.22° C | 37% | 1015.6 hPa | 0 mm | - | 0 W/m² | - |
| 1778127414 | 22.22° C | 36% | 1015.6 hPa | 0 mm | - | 0 W/m² | - |
| 1778127110 | 22.22° C | 37% | 1015.4 hPa | 0 mm | - | 0 W/m² | - |
* Rain latest hour (hover to see other rain measurements)
** Current wind speed in m/s (hover to see current wind gust speed)